Alanson, Michigan
Current Conditions -  °F | °C
As of 6:54 PM on Monday 20 Oct 2014 (Local Time) from KMGN Reporting Station
Overcast Overcast  
Wind Chill: 47°   Ceiling: 1900
Heat Index: 49°   Visibility: 10mi
Dew Point: 42°   Wind: 5mph
Humidity: 78%   Direction: 280°W
Pressure: 29.87"   Gusts: NA
Location:  45.44°N, 84.79°W
Report Text: KMGN 202254Z AUTO 28004KT 10SM OVC019 09/05 A2987 RMK AO2 T00920055
Loading
Personal Weather Stations






























Interactive Weather Map
Tropical Storm Tracking
New forecast layout! Learn more

10-Day Weather Forecast

Advertisements
Track Severe Weather on mobile